createdAt,value
2018-03-02T00:00:40.807Z,54.11
2018-03-02T00:01:40.975Z,54.30
2018-03-02T00:02:41.149Z,54.21
2018-03-02T00:03:41.313Z,54.39
2018-03-02T00:04:41.480Z,54.77
2018-03-02T00:05:41.659Z,55.24
2018-03-02T00:06:41.826Z,54.49
2018-03-02T00:07:41.994Z,54.49
2018-03-02T00:08:42.165Z,54.21
2018-03-02T00:09:42.336Z,54.11
2018-03-02T00:10:42.500Z,54.30
2018-03-02T00:11:42.674Z,54.58
2018-03-02T00:12:42.831Z,54.86
2018-03-02T00:13:43.006Z,54.68
2018-03-02T00:14:43.168Z,54.68
2018-03-02T00:15:43.339Z,55.05
2018-03-02T00:16:43.508Z,54.96
2018-03-02T00:17:43.675Z,55.05
2018-03-02T00:18:43.847Z,55.05
2018-03-02T00:19:44.017Z,55.24
2018-03-02T00:20:44.180Z,54.96
2018-03-02T00:21:44.348Z,55.15
2018-03-02T00:22:44.519Z,55.43
2018-03-02T00:23:44.686Z,55.33
2018-03-02T00:24:44.855Z,55.43
2018-03-02T00:25:45.023Z,55.43
2018-03-02T00:26:45.191Z,55.33
2018-03-02T00:27:45.360Z,55.24
2018-03-02T00:28:45.531Z,55.90
2018-03-02T00:29:45.693Z,56.09
2018-03-02T00:30:45.865Z,55.90
2018-03-02T00:31:46.046Z,55.71
2018-03-02T00:32:46.200Z,56.18
2018-03-02T00:33:46.373Z,55.62
2018-03-02T00:34:46.543Z,55.99
2018-03-02T00:35:46.710Z,56.18
2018-03-02T00:36:46.880Z,55.80
2018-03-02T00:37:47.047Z,55.99
2018-03-02T00:38:47.217Z,55.71
2018-03-02T00:39:47.380Z,55.99
2018-03-02T00:40:47.552Z,55.80
2018-03-02T00:41:47.720Z,56.09
2018-03-02T00:42:47.894Z,55.52
2018-03-02T00:43:48.056Z,56.18
2018-03-02T00:44:48.236Z,56.18
2018-03-02T00:45:48.393Z,55.71
2018-03-02T00:46:48.567Z,55.71
2018-03-02T00:47:48.735Z,56.18
2018-03-02T00:48:48.904Z,55.80
2018-03-02T00:49:49.074Z,56.18
2018-03-02T00:50:49.242Z,55.99
2018-03-02T00:51:49.406Z,56.09
2018-03-02T00:52:49.576Z,55.90
2018-03-02T00:53:49.745Z,55.99
2018-03-02T00:54:49.912Z,56.46
2018-03-02T00:55:50.087Z,56.84
2018-03-02T00:56:50.255Z,56.65
2018-03-02T00:57:50.422Z,56.65
2018-03-02T00:58:50.591Z,56.75
2018-03-02T00:59:50.763Z,56.46
2018-03-02T01:00:50.925Z,56.91
2018-03-02T01:01:51.089Z,56.81
2018-03-02T01:02:51.264Z,57.50
2018-03-02T01:03:51.436Z,57.47
2018-03-02T01:04:51.608Z,57.50
2018-03-02T01:05:51.774Z,57.50
2018-03-02T01:06:51.949Z,57.31
2018-03-02T01:07:52.112Z,57.12
2018-03-02T01:08:52.278Z,57.12
2018-03-02T01:09:52.449Z,57.12
2018-03-02T01:10:52.622Z,57.03
2018-03-02T01:11:52.796Z,57.41
2018-03-02T01:12:52.951Z,57.60
2018-03-02T01:13:53.119Z,57.60
2018-03-02T01:14:53.287Z,57.41
2018-03-02T01:15:53.464Z,57.22
2018-03-02T01:16:53.629Z,57.60
2018-03-02T01:17:53.791Z,57.12
2018-03-02T01:18:53.963Z,57.31
2018-03-02T01:19:54.127Z,57.38
2018-03-02T01:20:54.305Z,57.29
2018-03-02T01:21:54.464Z,57.29
2018-03-02T01:22:54.633Z,57.12
2018-03-02T01:23:54.802Z,57.19
2018-03-02T01:24:54.972Z,57.29
2018-03-02T01:25:55.143Z,57.76
2018-03-02T01:26:55.309Z,57.76
2018-03-02T01:27:55.478Z,57.57
2018-03-02T01:28:55.651Z,58.42
2018-03-02T01:29:55.816Z,58.13
2018-03-02T01:30:55.979Z,58.23
2018-03-02T01:31:56.214Z,58.32
2018-03-02T01:32:56.301Z,58.42
2018-03-02T01:33:56.471Z,58.32
2018-03-02T01:34:56.641Z,58.32
2018-03-02T01:35:56.799Z,58.80
2018-03-02T01:36:56.969Z,58.23
2018-03-02T01:37:57.139Z,58.23
2018-03-02T01:38:57.305Z,58.26
2018-03-02T01:39:57.710Z,58.51
2018-03-02T01:40:57.636Z,58.32
2018-03-02T01:41:57.821Z,58.23
2018-03-02T01:43:58.139Z,58.42
2018-03-02T01:44:58.305Z,58.61
2018-03-02T01:45:58.466Z,58.61
2018-03-02T01:46:58.635Z,58.61
2018-03-02T01:47:58.804Z,58.98
2018-03-02T01:48:58.964Z,58.61
2018-03-02T01:49:59.136Z,58.61
2018-03-02T01:50:59.304Z,58.61
2018-03-02T01:51:59.469Z,58.89
2018-03-02T01:52:59.638Z,59.36
2018-03-02T01:53:59.806Z,59.17
2018-03-02T01:54:59.971Z,59.17
2018-03-02T01:56:00.472Z,59.17
2018-03-02T01:57:00.310Z,59.36
2018-03-02T01:58:00.481Z,58.98
2018-03-02T01:59:00.639Z,59.55
2018-03-02T02:00:00.804Z,59.27
2018-03-02T02:01:00.978Z,59.83
2018-03-02T02:02:01.153Z,59.74
2018-03-02T02:03:01.318Z,59.74
2018-03-02T02:04:01.480Z,59.17
2018-03-02T02:05:01.648Z,59.27
2018-03-02T02:06:01.812Z,59.27
2018-03-02T02:07:01.982Z,58.98
2018-03-02T02:08:02.152Z,59.36
2018-03-02T02:09:02.317Z,58.89
2018-03-02T02:10:02.487Z,59.36
2018-03-02T02:11:02.651Z,59.55
2018-03-02T02:12:02.820Z,59.45
2018-03-02T02:13:02.988Z,59.64
2018-03-02T02:14:03.153Z,59.83
2018-03-02T02:15:03.323Z,59.83
2018-03-02T02:16:03.491Z,60.11
2018-03-02T02:17:03.658Z,59.83
2018-03-02T02:18:03.831Z,59.83
2018-03-02T02:19:03.997Z,60.11
2018-03-02T02:20:04.165Z,60.21
2018-03-02T02:21:04.329Z,60.30
2018-03-02T02:22:04.502Z,60.30
2018-03-02T02:23:04.672Z,59.83
2018-03-02T02:24:04.840Z,60.30
2018-03-02T02:25:05.001Z,60.49
2018-03-02T02:26:05.167Z,60.49
2018-03-02T02:27:05.335Z,60.30
2018-03-02T02:28:05.501Z,60.49
2018-03-02T02:29:05.669Z,60.11
2018-03-02T02:30:05.845Z,60.39
2018-03-02T02:31:06.006Z,60.21
2018-03-02T02:32:06.173Z,60.30
2018-03-02T02:33:06.339Z,60.02
2018-03-02T02:34:06.509Z,60.39
2018-03-02T02:35:06.671Z,60.49
2018-03-02T02:36:06.847Z,60.96
2018-03-02T02:37:07.015Z,60.86
2018-03-02T02:38:07.182Z,60.96
2018-03-02T02:39:07.348Z,60.30
2018-03-02T02:40:07.514Z,60.39
2018-03-02T02:41:07.682Z,60.21
2018-03-02T02:42:07.849Z,60.11
2018-03-02T02:43:08.022Z,60.21
2018-03-02T02:44:08.200Z,60.58
2018-03-02T02:45:08.361Z,60.58
2018-03-02T02:46:08.529Z,60.30
2018-03-02T02:47:08.699Z,60.21
2018-03-02T02:48:08.863Z,60.21
2018-03-02T02:49:09.029Z,60.21
2018-03-02T02:50:09.202Z,60.49
2018-03-02T02:51:09.366Z,60.49
2018-03-02T02:52:09.538Z,60.21
2018-03-02T02:53:09.708Z,60.49
2018-03-02T02:54:09.874Z,60.21
2018-03-02T02:55:10.037Z,60.39
2018-03-02T02:56:10.203Z,60.86
2018-03-02T02:57:10.374Z,60.96
2018-03-02T02:58:10.540Z,60.86
2018-03-02T02:59:10.710Z,60.77
2018-03-02T03:00:10.877Z,60.68
2018-03-02T03:01:11.045Z,61.05
2018-03-02T03:02:11.209Z,61.24
2018-03-02T03:03:11.381Z,60.96
2018-03-02T03:04:11.542Z,60.30
2018-03-02T03:05:11.711Z,60.39
2018-03-02T03:06:11.876Z,60.11
2018-03-02T03:07:12.048Z,60.49
2018-03-02T03:08:12.228Z,60.58
2018-03-02T03:09:12.380Z,60.86
2018-03-02T03:10:12.558Z,60.21
2018-03-02T03:11:12.705Z,60.21
2018-03-02T03:12:12.875Z,60.21
2018-03-02T03:13:13.040Z,60.21
2018-03-02T03:14:13.215Z,60.96
2018-03-02T03:15:13.383Z,60.39
2018-03-02T03:16:13.550Z,60.68
2018-03-02T03:18:13.876Z,60.77
2018-03-02T03:19:14.044Z,60.77
2018-03-02T03:20:14.219Z,60.86
2018-03-02T03:21:14.384Z,60.77
2018-03-02T03:22:14.552Z,60.68
2018-03-02T03:23:14.729Z,60.30
2018-03-02T03:24:14.889Z,60.68
2018-03-02T03:25:15.059Z,60.77
2018-03-02T03:26:15.684Z,60.96
2018-03-02T03:27:15.398Z,61.43
2018-03-02T03:28:15.564Z,61.15
2018-03-02T03:29:15.730Z,61.15
2018-03-02T03:30:15.901Z,60.77
2018-03-02T03:31:16.065Z,60.86
2018-03-02T03:32:16.240Z,61.24
2018-03-02T03:33:16.408Z,60.96
2018-03-02T03:34:16.573Z,60.21
2018-03-02T03:35:16.744Z,60.11
2018-03-02T03:36:16.913Z,60.58
2018-03-02T03:37:17.129Z,60.11
2018-03-02T03:38:17.244Z,60.68
2018-03-02T03:39:17.412Z,60.77
2018-03-02T03:40:17.588Z,60.86
2018-03-02T03:41:17.751Z,60.49
2018-03-02T03:42:17.917Z,60.58
2018-03-02T03:43:18.387Z,60.77
2018-03-02T03:44:18.262Z,61.15
2018-03-02T03:45:18.420Z,61.15
2018-03-02T03:46:18.590Z,61.15
2018-03-02T03:47:18.755Z,61.33
2018-03-02T03:48:18.917Z,60.77
2018-03-02T03:49:19.086Z,61.15
2018-03-02T03:50:19.256Z,61.05
2018-03-02T03:51:19.417Z,61.52
2018-03-02T03:52:19.588Z,61.52
2018-03-02T03:53:19.751Z,61.24
2018-03-02T03:54:19.920Z,61.33
2018-03-02T03:55:20.084Z,61.15
2018-03-02T03:56:20.257Z,61.43
2018-03-02T03:57:20.420Z,61.24
2018-03-02T03:58:20.585Z,61.43
2018-03-02T03:59:20.759Z,61.52
2018-03-02T04:00:20.918Z,61.15
2018-03-02T04:01:21.081Z,61.15
2018-03-02T04:02:21.262Z,61.52
2018-03-02T04:03:21.436Z,61.52
2018-03-02T04:04:21.596Z,61.43
2018-03-02T04:05:21.772Z,61.43
2018-03-02T04:06:22.189Z,61.62
2018-03-02T04:07:22.094Z,61.81
2018-03-02T04:08:22.265Z,61.62
2018-03-02T04:09:22.436Z,61.90
2018-03-02T04:10:22.605Z,61.52
2018-03-02T04:11:22.770Z,61.71
2018-03-02T04:12:22.940Z,61.62
2018-03-02T04:13:23.106Z,61.81
2018-03-02T04:14:23.278Z,61.71
2018-03-02T04:15:23.447Z,62.09
2018-03-02T04:16:23.616Z,61.71
2018-03-02T04:17:23.782Z,61.62
2018-03-02T04:18:23.951Z,61.71
2018-03-02T04:19:24.361Z,61.52
2018-03-02T04:20:24.284Z,61.71
2018-03-02T04:21:24.452Z,61.24
2018-03-02T04:22:24.620Z,61.62
2018-03-02T04:23:24.792Z,61.71
2018-03-02T04:24:24.991Z,61.81
2018-03-02T04:25:25.123Z,62.18
2018-03-02T04:26:25.292Z,62.47
2018-03-02T04:27:25.461Z,62.28
2018-03-02T04:28:25.638Z,62.28
2018-03-02T04:29:25.806Z,62.47
2018-03-02T04:30:25.972Z,61.99
2018-03-02T04:31:26.136Z,61.99
2018-03-02T04:32:26.309Z,62.28
2018-03-02T04:33:26.470Z,62.18
2018-03-02T04:34:26.636Z,61.90
2018-03-02T04:35:26.806Z,61.62
2018-03-02T04:36:26.972Z,61.90
2018-03-02T04:37:27.142Z,62.37
2018-03-02T04:38:27.318Z,62.84
2018-03-02T04:39:27.491Z,62.65
2018-03-02T04:40:27.639Z,62.56
2018-03-02T04:41:27.810Z,62.65
2018-03-02T04:42:27.966Z,62.56
2018-03-02T04:43:28.140Z,62.28
2018-03-02T04:44:28.302Z,62.47
2018-03-02T04:45:28.712Z,61.99
2018-03-02T04:46:28.643Z,61.99
2018-03-02T04:47:28.806Z,62.65
2018-03-02T04:48:28.976Z,62.84
2018-03-02T04:49:29.140Z,62.65
2018-03-02T04:50:29.309Z,62.56
2018-03-02T04:51:29.472Z,62.18
2018-03-02T04:52:29.643Z,61.99
2018-03-02T04:53:29.810Z,62.47
2018-03-02T04:54:29.975Z,62.65
2018-03-02T04:55:30.143Z,62.47
2018-03-02T04:56:30.305Z,62.65
2018-03-02T04:57:30.473Z,61.90
2018-03-02T04:58:30.644Z,62.09
2018-03-02T04:59:30.859Z,61.81
2018-03-02T05:00:31.039Z,61.81
2018-03-02T05:01:31.203Z,61.81
2018-03-02T05:02:31.371Z,62.28
2018-03-02T05:03:31.537Z,62.47
2018-03-02T05:04:31.716Z,62.47
2018-03-02T05:05:31.875Z,62.37
2018-03-02T05:06:32.047Z,62.84
2018-03-02T05:07:32.206Z,62.47
2018-03-02T05:08:32.376Z,62.75
2018-03-02T05:09:32.540Z,61.71
2018-03-02T05:10:32.708Z,61.81
2018-03-02T05:11:32.872Z,62.09
2018-03-02T05:12:33.057Z,62.75
2018-03-02T05:13:33.187Z,62.37
2018-03-02T05:14:33.359Z,62.94
2018-03-02T05:15:33.532Z,62.65
2018-03-02T05:16:33.696Z,62.56
2018-03-02T05:17:33.862Z,62.56
2018-03-02T05:18:34.034Z,62.28
2018-03-02T05:19:34.200Z,63.03
2018-03-02T05:20:34.371Z,63.03
2018-03-02T05:21:34.538Z,62.65
2018-03-02T05:22:34.716Z,62.75
2018-03-02T05:23:34.873Z,62.47
2018-03-02T05:24:35.035Z,61.90
2018-03-02T05:25:35.203Z,62.09
2018-03-02T05:26:35.380Z,61.62
2018-03-02T05:27:35.543Z,61.99
2018-03-02T05:28:35.728Z,62.75
2018-03-02T05:29:35.879Z,62.37
2018-03-02T05:30:36.045Z,62.47
2018-03-02T05:31:36.208Z,62.56
2018-03-02T05:32:36.374Z,62.65
2018-03-02T05:33:36.547Z,61.90
2018-03-02T05:34:36.711Z,61.99
2018-03-02T05:35:36.879Z,62.65
2018-03-02T05:36:37.050Z,62.84
2018-03-02T05:37:37.215Z,62.56
2018-03-02T05:38:37.380Z,62.65
2018-03-02T05:39:37.553Z,62.28
2018-03-02T05:40:37.749Z,62.56
2018-03-02T05:41:37.876Z,62.56
2018-03-02T05:42:38.040Z,62.28
2018-03-02T05:43:38.213Z,62.94
2018-03-02T05:44:38.374Z,63.13
2018-03-02T05:45:38.542Z,62.28
2018-03-02T05:46:38.708Z,62.65
2018-03-02T05:47:38.886Z,62.94
2018-03-02T05:48:39.053Z,62.47
2018-03-02T05:49:39.222Z,62.65
2018-03-02T05:50:39.402Z,62.75
2018-03-02T05:51:39.559Z,62.18
2018-03-02T05:52:39.720Z,62.94
2018-03-02T05:53:39.898Z,62.75
2018-03-02T05:54:40.061Z,62.37
2018-03-02T05:55:40.227Z,61.81
2018-03-02T05:56:40.393Z,61.62
2018-03-02T05:57:40.561Z,61.81
2018-03-02T05:58:40.747Z,62.18
2018-03-02T05:59:40.915Z,61.99
2018-03-02T06:00:41.081Z,62.65
2018-03-02T06:01:41.254Z,62.47
2018-03-02T06:02:41.432Z,62.56
2018-03-02T06:03:41.834Z,62.65
2018-03-02T06:04:41.766Z,62.47
2018-03-02T06:05:41.934Z,62.65
2018-03-02T06:06:42.120Z,62.65
2018-03-02T06:07:42.285Z,62.47
2018-03-02T06:08:42.443Z,62.75
2018-03-02T06:09:42.612Z,62.56
2018-03-02T06:10:42.782Z,62.47
2018-03-02T06:11:42.965Z,62.65
2018-03-02T06:12:43.119Z,62.56
2018-03-02T06:13:43.293Z,63.03
2018-03-02T06:14:43.455Z,62.56
2018-03-02T06:15:43.619Z,62.65
2018-03-02T06:16:44.033Z,62.37
2018-03-02T06:17:43.958Z,62.56
2018-03-02T06:18:44.128Z,62.37
2018-03-02T06:19:44.295Z,62.37
2018-03-02T06:20:44.465Z,62.56
2018-03-02T06:21:44.623Z,62.47
2018-03-02T06:22:44.814Z,62.94
2018-03-02T06:23:44.956Z,62.75
2018-03-02T06:24:45.134Z,63.03
2018-03-02T06:25:45.291Z,62.18
2018-03-02T06:26:45.471Z,62.75
2018-03-02T06:27:45.620Z,62.56
2018-03-02T06:28:45.787Z,61.90
2018-03-02T06:29:45.960Z,62.18
2018-03-02T06:30:46.124Z,62.65
2018-03-02T06:31:46.294Z,62.65
2018-03-02T06:32:46.459Z,63.13
2018-03-02T06:33:46.633Z,63.03
2018-03-02T06:34:46.800Z,62.84
2018-03-02T06:35:46.962Z,62.84
2018-03-02T06:36:47.124Z,62.84
2018-03-02T06:37:47.296Z,62.75
2018-03-02T06:38:47.464Z,62.56
2018-03-02T06:39:47.626Z,62.47
2018-03-02T06:40:47.801Z,62.56
2018-03-02T06:41:47.958Z,62.75
2018-03-02T06:42:48.386Z,62.56
2018-03-02T06:43:48.303Z,62.65
2018-03-02T06:44:48.468Z,63.13
2018-03-02T06:45:48.629Z,62.56
2018-03-02T06:46:48.799Z,62.65
2018-03-02T06:47:48.967Z,62.75
2018-03-02T06:48:49.135Z,63.13
2018-03-02T06:49:49.302Z,62.65
2018-03-02T06:50:49.467Z,62.56
2018-03-02T06:51:49.638Z,62.75
2018-03-02T06:52:49.795Z,62.84
2018-03-02T06:53:49.970Z,62.65
2018-03-02T06:54:50.139Z,62.94
2018-03-02T06:55:50.855Z,62.84
2018-03-02T06:56:50.463Z,62.75
2018-03-02T06:57:50.629Z,62.65
2018-03-02T06:58:50.793Z,62.65
2018-03-02T06:59:50.959Z,62.37
2018-03-02T07:00:51.125Z,62.84
2018-03-02T07:01:51.302Z,62.84
2018-03-02T07:02:51.472Z,63.13
2018-03-02T07:03:51.633Z,62.56
2018-03-02T07:04:51.809Z,62.94
2018-03-02T07:05:51.962Z,62.65
2018-03-02T07:06:52.128Z,62.47
2018-03-02T07:07:52.304Z,62.65
2018-03-02T07:08:52.467Z,62.65
2018-03-02T07:09:52.635Z,62.84
2018-03-02T07:10:52.809Z,62.56
2018-03-02T07:11:52.973Z,62.94
2018-03-02T07:12:53.136Z,62.37
2018-03-02T07:13:53.309Z,62.65
2018-03-02T07:14:53.467Z,62.65
2018-03-02T07:15:53.638Z,62.56
2018-03-02T07:16:53.818Z,62.47
2018-03-02T07:17:53.985Z,62.56
2018-03-02T07:18:54.157Z,62.56
2018-03-02T07:19:54.318Z,62.09
2018-03-02T07:20:54.484Z,62.65
2018-03-02T07:21:54.650Z,62.47
2018-03-02T07:22:54.878Z,61.71
2018-03-02T07:23:54.987Z,61.62
2018-03-02T07:24:55.157Z,61.71
2018-03-02T07:25:55.325Z,61.52
2018-03-02T07:26:55.485Z,61.52
2018-03-02T07:27:55.654Z,61.81
2018-03-02T07:28:55.832Z,61.24
2018-03-02T07:29:55.993Z,61.62
2018-03-02T07:30:56.181Z,61.52
2018-03-02T07:31:56.327Z,61.52
2018-03-02T07:32:56.485Z,61.81
2018-03-02T07:33:56.645Z,61.71
2018-03-02T07:34:56.861Z,62.09
2018-03-02T07:35:57.011Z,61.62
2018-03-02T07:36:57.296Z,61.90
2018-03-02T07:37:57.365Z,61.52
2018-03-02T07:38:57.529Z,61.62
2018-03-02T07:39:57.698Z,61.90
2018-03-02T07:40:57.870Z,61.33
2018-03-02T07:41:58.032Z,61.15
2018-03-02T07:42:58.199Z,61.05
2018-03-02T07:43:58.371Z,60.11
2018-03-02T07:44:58.530Z,60.02
2018-03-02T07:45:58.700Z,59.83
2018-03-02T07:46:58.865Z,60.21
2018-03-02T07:47:59.051Z,59.83
2018-03-02T07:48:59.207Z,59.83
2018-03-02T07:49:59.372Z,60.49
2018-03-02T07:50:59.546Z,59.83
2018-03-02T07:51:59.709Z,59.45
2018-03-02T07:52:59.877Z,59.55
2018-03-02T07:54:00.066Z,59.17
2018-03-02T07:55:00.206Z,59.08
2018-03-02T07:56:00.373Z,58.89
2018-03-02T07:57:00.557Z,58.35
2018-03-02T07:58:00.716Z,58.26
2018-03-02T07:59:00.881Z,57.78
2018-03-02T08:00:01.049Z,57.60
2018-03-02T08:01:01.221Z,57.03
2018-03-02T08:02:01.386Z,56.75
2018-03-02T08:03:01.556Z,56.75
2018-03-02T08:04:01.986Z,56.37
2018-03-02T08:05:01.893Z,55.62
2018-03-02T08:06:02.068Z,55.24
2018-03-02T08:07:02.241Z,54.96
2018-03-02T08:08:02.388Z,54.02
2018-03-02T08:09:02.554Z,54.02
2018-03-02T08:10:02.722Z,53.64
2018-03-02T08:11:02.890Z,53.73
2018-03-02T08:12:03.062Z,53.73
2018-03-02T08:13:03.233Z,54.39
2018-03-02T08:14:03.408Z,55.15
2018-03-02T08:15:03.571Z,54.58
2018-03-02T08:16:03.740Z,53.54
2018-03-02T08:17:03.913Z,53.64
2018-03-02T08:18:04.062Z,53.26
2018-03-02T08:19:04.238Z,53.45
2018-03-02T08:20:04.413Z,53.17
2018-03-02T08:21:04.580Z,53.64
2018-03-02T08:22:04.762Z,53.45
2018-03-02T08:23:04.920Z,53.36
2018-03-02T08:24:05.085Z,53.26
2018-03-02T08:25:05.254Z,53.64
2018-03-02T08:26:05.433Z,53.64
2018-03-02T08:27:05.602Z,53.66
2018-03-02T08:28:05.770Z,52.72
2018-03-02T08:29:05.940Z,51.87
2018-03-02T08:31:06.281Z,50.93
2018-03-02T08:32:06.450Z,50.65
2018-03-02T08:33:06.615Z,50.84
2018-03-02T08:34:06.786Z,50.36
2018-03-02T08:35:06.959Z,49.89
2018-03-02T08:36:07.132Z,49.80
2018-03-02T08:37:07.328Z,50.36
2018-03-02T08:38:07.467Z,50.08
2018-03-02T08:39:07.650Z,49.51
2018-03-02T08:40:08.198Z,49.61
2018-03-02T08:41:07.983Z,49.23
2018-03-02T08:42:08.156Z,49.14
2018-03-02T08:44:08.486Z,49.51
2018-03-02T08:45:08.674Z,49.32
2018-03-02T08:46:08.843Z,48.69
2018-03-02T08:47:09.017Z,47.84
2018-03-02T08:48:09.189Z,48.00
2018-03-02T08:49:09.359Z,47.84
2018-03-02T08:50:09.536Z,47.84
2018-03-02T08:51:09.703Z,47.75
2018-03-02T08:52:09.870Z,47.37
2018-03-02T08:53:10.049Z,46.71
2018-03-02T08:54:10.228Z,46.99
2018-03-02T08:55:10.396Z,46.80
2018-03-02T08:56:10.555Z,46.61
2018-03-02T08:57:10.740Z,46.71
2018-03-02T08:58:10.904Z,45.76
2018-03-02T08:59:11.084Z,45.13
2018-03-02T09:00:11.251Z,44.46
2018-03-02T09:01:11.435Z,44.27
2018-03-02T09:02:11.599Z,43.90
2018-03-02T09:04:11.957Z,44.37
2018-03-02T09:05:12.136Z,44.45
2018-03-02T09:06:12.318Z,44.73
2018-03-02T09:07:12.483Z,45.13
2018-03-02T09:08:12.657Z,43.80
2018-03-02T09:09:12.837Z,44.56
2018-03-02T09:10:12.998Z,43.71
2018-03-02T09:11:13.167Z,43.43
2018-03-02T09:12:13.349Z,43.15
2018-03-02T09:13:13.514Z,43.88
2018-03-02T09:14:13.683Z,44.27
2018-03-02T09:15:13.855Z,44.45
2018-03-02T09:16:14.034Z,44.26
2018-03-02T09:17:14.216Z,44.46
2018-03-02T09:18:14.393Z,44.37
2018-03-02T09:19:14.551Z,44.16
2018-03-02T09:20:14.731Z,45.10
2018-03-02T09:21:14.880Z,45.86
2018-03-02T09:22:15.075Z,45.76
2018-03-02T09:23:15.246Z,45.39
2018-03-02T09:24:15.422Z,45.48
2018-03-02T09:25:15.609Z,45.69
2018-03-02T09:26:15.790Z,45.22
2018-03-02T09:27:15.948Z,44.27
2018-03-02T09:28:16.117Z,44.46
2018-03-02T09:29:16.289Z,45.01
2018-03-02T09:30:16.468Z,45.48
2018-03-02T09:31:16.637Z,45.41
2018-03-02T09:32:16.865Z,44.46
2018-03-02T09:33:16.991Z,43.33
2018-03-02T09:34:17.204Z,43.15
2018-03-02T09:35:17.332Z,42.77
2018-03-02T09:36:17.510Z,42.67
2018-03-02T09:37:17.696Z,42.86
2018-03-02T09:38:17.851Z,42.77
2018-03-02T09:39:18.026Z,42.67
2018-03-02T09:40:18.204Z,42.86
2018-03-02T09:41:18.383Z,42.96
2018-03-02T09:42:18.544Z,42.77
2018-03-02T09:43:18.718Z,42.96
2018-03-02T09:44:18.899Z,43.15
2018-03-02T09:45:19.070Z,43.33
2018-03-02T09:46:19.246Z,43.05
2018-03-02T09:47:19.425Z,42.96
2018-03-02T09:48:19.657Z,42.13
2018-03-02T09:49:19.774Z,41.66
2018-03-02T09:50:19.953Z,41.06
2018-03-02T09:51:20.125Z,41.73
2018-03-02T09:52:20.308Z,42.11
2018-03-02T09:53:20.473Z,42.58
2018-03-02T09:54:20.650Z,42.58
2018-03-02T09:55:20.827Z,42.22
2018-03-02T09:56:21.011Z,41.54
2018-03-02T09:57:21.176Z,41.47
2018-03-02T09:58:21.350Z,42.08
2018-03-02T09:59:21.530Z,42.86
2018-03-02T10:00:21.697Z,43.59
2018-03-02T10:01:21.877Z,44.37
2018-03-02T10:02:22.053Z,43.99
2018-03-02T10:03:22.224Z,43.07
2018-03-02T10:04:22.393Z,42.13
2018-03-02T10:05:22.566Z,40.99
2018-03-02T10:06:22.751Z,40.07
2018-03-02T10:07:22.943Z,40.80
2018-03-02T10:08:23.110Z,40.24
2018-03-02T10:09:23.282Z,40.61
2018-03-02T10:10:23.490Z,39.59
2018-03-02T10:11:23.635Z,38.67
2018-03-02T10:12:23.808Z,37.88
2018-03-02T10:13:23.993Z,38.56
2018-03-02T10:14:24.164Z,38.75
2018-03-02T10:15:24.348Z,37.61
2018-03-02T10:16:24.522Z,38.75
2018-03-02T10:17:24.698Z,38.82
2018-03-02T10:18:24.883Z,39.31
2018-03-02T10:19:25.065Z,39.29
2018-03-02T10:20:25.235Z,39.50
2018-03-02T10:21:25.419Z,39.22
2018-03-02T10:22:25.597Z,38.20
2018-03-02T10:23:26.180Z,36.97
2018-03-02T10:24:25.951Z,36.68
2018-03-02T10:25:26.141Z,36.40
2018-03-02T10:26:26.317Z,35.83
2018-03-02T10:27:26.492Z,36.19
2018-03-02T10:28:26.702Z,36.78
2018-03-02T10:29:26.836Z,35.99
2018-03-02T10:30:27.012Z,38.71
2018-03-02T10:31:27.191Z,40.22
2018-03-02T10:32:27.362Z,41.66
2018-03-02T10:33:27.545Z,41.37
2018-03-02T10:34:27.726Z,41.09
2018-03-02T10:35:27.894Z,40.45
2018-03-02T10:36:28.075Z,39.67
2018-03-02T10:37:28.243Z,39.88
2018-03-02T10:38:28.423Z,39.59
2018-03-02T10:39:28.596Z,38.75
2018-03-02T10:40:28.770Z,37.92
2018-03-02T10:41:28.993Z,37.06
2018-03-02T10:42:29.124Z,36.47
2018-03-02T10:43:29.288Z,37.14
2018-03-02T10:44:29.467Z,37.14
2018-03-02T10:45:29.661Z,37.06
2018-03-02T10:46:29.842Z,37.16
2018-03-02T10:47:29.995Z,36.31
2018-03-02T10:48:30.169Z,36.21
2018-03-02T10:49:30.362Z,36.40
2018-03-02T10:50:30.547Z,35.64
2018-03-02T10:51:30.723Z,35.66
2018-03-02T10:52:30.896Z,35.17
2018-03-02T10:53:31.078Z,35.64
2018-03-02T10:54:31.253Z,35.64
2018-03-02T10:55:31.436Z,36.02
2018-03-02T10:56:31.609Z,36.59
2018-03-02T10:57:52.791Z,36.97
2018-03-02T10:58:31.939Z,37.06
2018-03-02T10:59:32.106Z,36.87
2018-03-02T11:00:32.279Z,36.23
2018-03-02T11:01:32.442Z,35.55
2018-03-02T11:02:32.624Z,37.04
2018-03-02T11:03:32.804Z,36.66
2018-03-02T11:04:32.985Z,37.33
2018-03-02T11:05:33.170Z,37.42
2018-03-02T11:06:33.344Z,37.90
2018-03-02T11:07:33.531Z,37.99
2018-03-02T11:08:33.698Z,38.37
2018-03-02T11:09:33.877Z,37.90
2018-03-02T11:10:34.054Z,38.56
2018-03-02T11:11:34.223Z,38.39
2018-03-02T11:12:34.409Z,37.35
2018-03-02T11:13:34.576Z,36.99
2018-03-02T11:14:34.755Z,35.85
2018-03-02T11:15:34.931Z,35.64
2018-03-02T11:16:35.108Z,35.66
2018-03-02T11:17:35.287Z,35.55
2018-03-02T11:18:35.459Z,35.38
2018-03-02T11:19:35.644Z,35.74
2018-03-02T11:20:35.816Z,35.85
2018-03-02T11:21:36.002Z,35.55
2018-03-02T11:22:36.175Z,35.95
2018-03-02T11:23:36.359Z,36.74
2018-03-02T11:24:36.532Z,39.29
2018-03-02T11:25:36.713Z,40.05
2018-03-02T11:26:36.904Z,40.64
2018-03-02T11:27:37.078Z,40.16
2018-03-02T11:28:37.259Z,39.05
2018-03-02T11:29:37.437Z,36.80
2018-03-02T11:30:37.619Z,35.49
2018-03-02T11:31:37.798Z,33.98
2018-03-02T11:32:37.972Z,34.13
2018-03-02T11:33:38.154Z,35.25
2018-03-02T11:34:38.335Z,36.31
2018-03-02T11:35:38.512Z,36.87
2018-03-02T11:36:38.667Z,37.16
2018-03-02T11:37:38.842Z,37.23
2018-03-02T11:38:39.022Z,39.29
2018-03-02T11:39:39.206Z,39.59
2018-03-02T11:40:39.408Z,39.33
2018-03-02T11:41:39.552Z,38.39
2018-03-02T11:42:39.735Z,38.10
2018-03-02T11:43:39.908Z,37.73
2018-03-02T11:44:40.168Z,36.99
2018-03-02T11:45:40.333Z,36.42
2018-03-02T11:46:40.510Z,35.66
2018-03-02T11:47:40.697Z,35.57
2018-03-02T11:48:40.876Z,35.27
2018-03-02T11:49:41.043Z,36.12
2018-03-02T11:50:41.222Z,36.47
2018-03-02T11:51:41.415Z,37.04
2018-03-02T11:52:41.680Z,37.80
2018-03-02T11:53:41.775Z,38.92
2018-03-02T11:54:41.951Z,39.22
2018-03-02T11:55:42.116Z,39.58
2018-03-02T11:56:42.300Z,39.69
2018-03-02T11:57:42.473Z,39.40
2018-03-02T11:58:42.655Z,40.16
2018-03-02T11:59:42.819Z,39.31
2018-03-02T12:00:43.033Z,38.95
2018-03-02T12:01:43.193Z,37.82
2018-03-02T12:02:43.372Z,37.73
2018-03-02T12:03:43.552Z,36.80
2018-03-02T12:04:43.720Z,36.14
2018-03-02T12:05:43.896Z,35.64
2018-03-02T12:06:44.078Z,35.93
2018-03-02T12:08:44.439Z,36.78
2018-03-02T12:09:44.602Z,36.87
2018-03-02T12:10:44.780Z,36.97
2018-03-02T12:11:44.966Z,37.90
2018-03-02T12:12:45.140Z,39.12
2018-03-02T12:13:45.323Z,39.31
2018-03-02T12:14:45.498Z,39.22
2018-03-02T12:15:45.673Z,39.50
2018-03-02T12:16:45.930Z,39.59
2018-03-02T12:17:46.044Z,40.24
2018-03-02T12:18:46.216Z,41.09
2018-03-02T12:19:46.397Z,41.56
2018-03-02T12:20:46.571Z,41.67
2018-03-02T12:21:46.759Z,41.11
2018-03-02T12:22:46.938Z,40.83
2018-03-02T12:23:47.097Z,40.73
2018-03-02T12:24:47.583Z,40.24
2018-03-02T12:25:47.515Z,41.18
2018-03-02T12:26:47.692Z,41.66
2018-03-02T12:27:47.895Z,42.11
2018-03-02T12:28:48.037Z,42.60
2018-03-02T12:29:48.260Z,42.60
2018-03-02T12:30:48.395Z,42.60
2018-03-02T12:31:48.568Z,42.32
2018-03-02T12:32:48.744Z,42.69
2018-03-02T12:33:48.917Z,42.77
2018-03-02T12:34:49.094Z,42.88
2018-03-02T12:35:49.320Z,42.86
2018-03-02T12:36:49.428Z,42.86
2018-03-02T12:37:49.598Z,42.88
2018-03-02T12:38:49.826Z,43.16
2018-03-02T12:39:49.950Z,42.60
2018-03-02T12:40:50.125Z,42.22
2018-03-02T12:41:50.302Z,41.94
2018-03-02T12:42:50.484Z,42.58
2018-03-02T12:43:50.660Z,43.05
2018-03-02T12:44:50.828Z,43.45
2018-03-02T12:45:50.994Z,43.26
2018-03-02T12:46:51.216Z,42.79
2018-03-02T12:47:51.381Z,42.62
2018-03-02T12:48:51.558Z,41.67
2018-03-02T12:49:51.764Z,41.37
2018-03-02T12:50:51.892Z,41.28
2018-03-02T12:51:52.075Z,41.49
2018-03-02T12:52:52.239Z,41.09
2018-03-02T12:53:52.409Z,41.37
2018-03-02T12:54:52.589Z,41.37
2018-03-02T12:55:52.766Z,41.28
2018-03-02T12:56:52.936Z,41.85
2018-03-02T12:57:53.117Z,42.22
2018-03-02T12:58:53.286Z,42.69
2018-03-02T12:59:53.453Z,42.69
2018-03-02T13:00:53.640Z,42.60